createdAt,value
2022-12-18T00:01:30.281Z,38.20
2022-12-18T00:03:57.765Z,30.75
2022-12-18T00:06:26.420Z,27.88
2022-12-18T00:08:53.667Z,32.10
2022-12-18T00:11:22.764Z,29.52
2022-12-18T00:13:50.669Z,26.33
2022-12-18T00:16:22.968Z,34.65
2022-12-18T00:18:51.191Z,30.00
2022-12-18T00:21:18.924Z,32.33
2022-12-18T00:23:47.424Z,28.73
2022-12-18T00:26:24.357Z,31.35
2022-12-18T00:28:52.715Z,29.55
2022-12-18T00:31:25.421Z,30.48
2022-12-18T00:33:56.087Z,34.97
2022-12-18T00:36:27.214Z,30.33
2022-12-18T00:38:55.969Z,27.77
2022-12-18T00:41:42.567Z,29.05
2022-12-18T00:44:12.647Z,27.08
2022-12-18T00:46:39.915Z,31.77
2022-12-18T00:49:07.828Z,32.83
2022-12-18T00:51:34.878Z,29.42
2022-12-18T00:54:01.881Z,25.75
2022-12-18T00:56:28.754Z,29.30
2022-12-18T00:58:55.667Z,24.88
2022-12-18T01:01:22.733Z,28.48
2022-12-18T01:03:49.957Z,30.85
2022-12-18T01:06:17.824Z,29.20
2022-12-18T01:08:45.521Z,29.83
2022-12-18T01:11:22.040Z,31.58
2022-12-18T01:13:48.965Z,27.73
2022-12-18T01:16:18.335Z,32.17
2022-12-18T01:18:46.359Z,31.23
2022-12-18T01:21:18.342Z,28.67
2022-12-18T01:23:45.112Z,26.42
2022-12-18T01:26:15.512Z,27.73
2022-12-18T01:28:44.971Z,27.67
2022-12-18T01:31:16.942Z,26.13
2022-12-18T01:33:45.429Z,26.75
2022-12-18T01:36:26.817Z,25.40
2022-12-18T01:38:54.670Z,28.85
2022-12-18T01:41:24.857Z,28.08
2022-12-18T01:43:58.949Z,28.80
2022-12-18T01:46:27.236Z,18.92
2022-12-18T01:48:58.137Z,27.27
2022-12-18T01:51:26.764Z,28.65
2022-12-18T01:53:53.887Z,33.63
2022-12-18T01:56:22.597Z,27.10
2022-12-18T01:59:01.916Z,30.05
2022-12-18T02:01:31.228Z,32.67
2022-12-18T02:04:26.508Z,24.98
2022-12-18T02:07:05.091Z,29.63
2022-12-18T02:09:41.005Z,29.15
2022-12-18T02:12:16.757Z,23.98
2022-12-18T02:14:54.871Z,26.98
2022-12-18T02:17:26.200Z,32.33
2022-12-18T02:20:21.170Z,34.70
2022-12-18T02:23:39.082Z,23.65
2022-12-18T02:26:30.857Z,27.95
2022-12-18T02:29:09.413Z,30.30
2022-12-18T02:31:41.408Z,22.85
2022-12-18T02:34:10.494Z,32.55
2022-12-18T02:36:41.325Z,29.15
2022-12-18T02:39:10.934Z,28.95
2022-12-18T02:41:39.092Z,28.90
2022-12-18T02:44:13.361Z,26.45
2022-12-18T02:46:51.409Z,22.92
2022-12-18T02:49:38.294Z,28.10
2022-12-18T02:52:29.939Z,30.85
2022-12-18T02:55:34.533Z,31.45
2022-12-18T02:58:28.200Z,22.02
2022-12-18T03:01:09.913Z,35.10
2022-12-18T03:03:51.640Z,26.88
2022-12-18T03:06:44.717Z,26.13
2022-12-18T03:09:19.189Z,27.23
2022-12-18T03:12:13.305Z,23.42
2022-12-18T03:14:43.950Z,25.05
2022-12-18T03:17:17.725Z,33.28
2022-12-18T03:19:47.218Z,26.13
2022-12-18T03:22:16.934Z,24.75
2022-12-18T03:24:43.993Z,24.33
2022-12-18T03:27:14.681Z,23.80
2022-12-18T03:29:53.997Z,26.85
2022-12-18T03:32:35.165Z,22.77
2022-12-18T03:35:05.802Z,26.08
2022-12-18T03:37:33.210Z,24.55
2022-12-18T03:40:00.650Z,25.40
2022-12-18T03:42:47.150Z,29.95
2022-12-18T03:45:20.053Z,26.58
2022-12-18T03:48:07.415Z,27.13
2022-12-18T03:50:41.190Z,23.48
2022-12-18T03:53:26.788Z,24.40
2022-12-18T03:55:54.240Z,22.48
2022-12-18T03:58:27.811Z,25.90
2022-12-18T04:00:57.992Z,22.75
2022-12-18T04:03:26.976Z,21.77
2022-12-18T04:05:56.698Z,20.33
2022-12-18T04:08:25.343Z,22.52
2022-12-18T04:10:52.184Z,28.55
2022-12-18T04:13:28.799Z,22.45
2022-12-18T04:15:55.767Z,20.02
2022-12-18T04:18:22.544Z,25.83
2022-12-18T04:20:49.559Z,27.10
2022-12-18T04:23:16.522Z,27.35
2022-12-18T04:25:43.558Z,27.02
2022-12-18T04:28:10.312Z,28.45
2022-12-18T04:30:37.241Z,28.77
2022-12-18T04:33:04.205Z,31.55
2022-12-18T04:35:31.483Z,24.70
2022-12-18T04:37:58.356Z,29.83
2022-12-18T04:40:25.289Z,24.67
2022-12-18T04:42:52.282Z,24.02
2022-12-18T04:45:19.476Z,22.02
2022-12-18T04:47:46.473Z,27.13
2022-12-18T04:50:13.401Z,21.48
2022-12-18T04:52:40.250Z,22.85
2022-12-18T04:55:07.421Z,24.35
2022-12-18T04:57:34.407Z,28.98
2022-12-18T05:00:01.578Z,21.73
2022-12-18T05:02:28.601Z,25.10
2022-12-18T05:04:55.633Z,21.50
2022-12-18T05:07:22.602Z,21.45
2022-12-18T05:09:49.560Z,28.60
2022-12-18T05:12:16.581Z,24.90
2022-12-18T05:14:43.508Z,22.85
2022-12-18T05:17:10.519Z,24.92
2022-12-18T05:19:37.585Z,25.73
2022-12-18T05:22:04.472Z,19.80
2022-12-18T05:24:31.641Z,24.75
2022-12-18T05:26:58.463Z,21.48
2022-12-18T05:29:25.338Z,25.83
2022-12-18T05:31:52.359Z,21.95
2022-12-18T05:34:19.218Z,20.75
2022-12-18T05:36:46.106Z,29.02
2022-12-18T05:39:13.109Z,24.52
2022-12-18T05:41:40.304Z,23.38
2022-12-18T05:44:08.585Z,21.27
2022-12-18T05:46:35.717Z,25.15
2022-12-18T05:49:03.161Z,23.98
2022-12-18T05:51:30.133Z,23.73
2022-12-18T05:53:56.919Z,23.90
2022-12-18T05:56:24.208Z,22.45
2022-12-18T05:58:55.802Z,21.88
2022-12-18T06:01:26.247Z,24.23
2022-12-18T06:03:53.325Z,23.13
2022-12-18T06:06:24.186Z,24.45
2022-12-18T06:08:52.006Z,21.65
2022-12-18T06:11:22.052Z,20.50
2022-12-18T06:13:56.330Z,19.67
2022-12-18T06:16:25.593Z,22.48
2022-12-18T06:18:52.601Z,22.75
2022-12-18T06:21:19.843Z,22.00
2022-12-18T06:23:46.581Z,18.58
2022-12-18T06:26:14.329Z,23.30
2022-12-18T06:28:41.825Z,25.17
2022-12-18T06:31:10.205Z,22.38
2022-12-18T06:33:38.435Z,27.67
2022-12-18T06:36:09.052Z,25.40
2022-12-18T06:38:38.202Z,21.15
2022-12-18T06:41:13.046Z,24.02
2022-12-18T06:43:40.414Z,26.38
2022-12-18T06:46:07.992Z,22.58
2022-12-18T06:48:35.287Z,24.65
2022-12-18T06:51:02.600Z,27.70
2022-12-18T06:53:30.103Z,21.50
2022-12-18T06:56:10.683Z,25.50
2022-12-18T06:58:38.905Z,17.33
2022-12-18T07:01:08.718Z,24.33
2022-12-18T07:03:35.658Z,23.50
2022-12-18T07:06:02.865Z,26.73
2022-12-18T07:08:31.353Z,22.95
2022-12-18T07:10:58.771Z,29.50
2022-12-18T07:13:25.818Z,23.38
2022-12-18T07:15:52.848Z,28.67
2022-12-18T07:18:19.700Z,25.45
2022-12-18T07:20:46.689Z,23.83
2022-12-18T07:23:14.918Z,26.13
2022-12-18T07:25:42.000Z,20.67
2022-12-18T07:28:12.872Z,23.80
2022-12-18T07:30:44.147Z,23.42
2022-12-18T07:33:11.143Z,26.42
2022-12-18T07:35:38.153Z,28.45
2022-12-18T07:38:04.928Z,24.70
2022-12-18T07:40:31.957Z,27.45
2022-12-18T07:42:58.961Z,27.17
2022-12-18T07:45:25.756Z,23.70
2022-12-18T07:47:52.648Z,33.22
2022-12-18T07:50:19.547Z,25.00
2022-12-18T07:52:46.505Z,23.48
2022-12-18T07:55:13.500Z,28.23
2022-12-18T07:58:00.840Z,26.58
2022-12-18T08:00:27.286Z,25.20
2022-12-18T08:02:54.653Z,23.90
2022-12-18T08:05:22.128Z,23.80
2022-12-18T08:07:49.096Z,23.35
2022-12-18T08:10:16.200Z,24.20
2022-12-18T08:12:43.320Z,31.48
2022-12-18T08:15:10.477Z,20.05
2022-12-18T08:17:37.448Z,28.42
2022-12-18T08:20:04.537Z,28.48
2022-12-18T08:22:32.309Z,25.20
2022-12-18T08:24:59.255Z,22.08
2022-12-18T08:27:30.128Z,25.70
2022-12-18T08:29:58.240Z,30.08
2022-12-18T08:32:26.698Z,25.55
2022-12-18T08:34:53.628Z,32.33
2022-12-18T08:37:20.752Z,27.95
2022-12-18T08:39:47.777Z,22.67
2022-12-18T08:42:33.334Z,31.30
2022-12-18T08:45:00.545Z,25.95
2022-12-18T08:47:27.561Z,26.92
2022-12-18T08:49:54.617Z,31.60
2022-12-18T08:52:21.537Z,26.05
2022-12-18T08:54:48.415Z,26.80
2022-12-18T08:57:15.394Z,29.92
2022-12-18T08:59:42.333Z,25.02
2022-12-18T09:02:13.174Z,30.92
2022-12-18T09:04:41.084Z,25.15
2022-12-18T09:07:09.072Z,30.48
2022-12-18T09:09:36.967Z,27.17
2022-12-18T09:12:04.077Z,30.20
2022-12-18T09:14:30.829Z,33.85
2022-12-18T09:16:57.723Z,27.92
2022-12-18T09:19:24.670Z,25.27
2022-12-18T09:21:51.624Z,25.33
2022-12-18T09:24:18.740Z,29.52
2022-12-18T09:26:46.974Z,26.83
2022-12-18T09:29:15.660Z,26.00
2022-12-18T09:31:44.477Z,30.55
2022-12-18T09:34:11.373Z,30.45
2022-12-18T09:36:38.863Z,26.27
2022-12-18T09:39:08.505Z,30.75
2022-12-18T09:41:38.617Z,28.50
2022-12-18T09:44:19.817Z,27.50
2022-12-18T09:47:10.686Z,29.05
2022-12-18T09:49:43.724Z,23.85
2022-12-18T09:52:35.620Z,25.30
2022-12-18T09:55:17.704Z,27.77
2022-12-18T09:57:52.532Z,34.30
2022-12-18T10:02:49.293Z,25.83
2022-12-18T10:05:44.818Z,24.80
2022-12-18T10:08:29.048Z,31.02
2022-12-18T10:11:11.017Z,32.75
2022-12-18T10:13:50.111Z,24.02
2022-12-18T10:16:40.623Z,26.27
2022-12-18T10:19:27.314Z,29.70
2022-12-18T10:22:19.680Z,28.27
2022-12-18T10:25:00.587Z,26.90
2022-12-18T10:27:28.395Z,26.48
2022-12-18T10:29:55.800Z,21.73
2022-12-18T10:32:28.427Z,25.15
2022-12-18T10:35:00.813Z,30.95
2022-12-18T10:37:30.850Z,29.23
2022-12-18T10:40:30.319Z,32.28
2022-12-18T10:43:07.343Z,25.92
2022-12-18T10:45:34.555Z,28.50
2022-12-18T10:48:02.043Z,25.67
2022-12-18T10:51:09.182Z,28.70
2022-12-18T10:53:30.853Z,27.10
2022-12-18T10:56:00.242Z,23.02
2022-12-18T10:58:30.753Z,26.58
2022-12-18T11:01:21.754Z,25.75
2022-12-18T11:04:03.011Z,23.48
2022-12-18T11:06:30.424Z,23.13
2022-12-18T11:09:07.872Z,26.23
2022-12-18T11:11:39.441Z,23.00
2022-12-18T11:14:13.513Z,23.65
2022-12-18T11:17:23.881Z,33.53
2022-12-18T11:19:41.099Z,22.98
2022-12-18T11:22:23.073Z,20.77
2022-12-18T11:28:03.856Z,17.50
2022-12-18T11:30:33.357Z,16.15
2022-12-18T11:33:08.233Z,18.52
2022-12-18T11:38:12.845Z,24.30
2022-12-18T11:40:43.542Z,19.02
2022-12-18T11:43:23.406Z,19.00
2022-12-18T11:45:58.185Z,18.63
2022-12-18T11:49:04.972Z,25.17
2022-12-18T11:51:58.716Z,14.95
2022-12-18T11:54:25.461Z,19.75
2022-12-18T11:56:58.092Z,17.77
2022-12-18T11:59:34.209Z,17.80
2022-12-18T12:02:36.532Z,12.02
2022-12-18T12:05:18.833Z,10.07
2022-12-18T12:08:00.939Z,14.43
2022-12-18T12:10:40.186Z,13.90
2022-12-18T12:13:25.710Z,11.27
2022-12-18T12:16:22.094Z,8.30
2022-12-18T12:19:26.444Z,10.73
2022-12-18T12:22:08.508Z,9.85
2022-12-18T12:24:47.789Z,10.32
2022-12-18T12:27:48.868Z,12.50
2022-12-18T12:30:18.497Z,12.65
2022-12-18T12:33:01.524Z,12.45
2022-12-18T12:35:59.142Z,15.18
2022-12-18T12:38:35.010Z,14.35
2022-12-18T12:41:30.236Z,13.95
2022-12-18T12:44:01.235Z,7.28
2022-12-18T12:46:28.819Z,12.07
2022-12-18T12:48:59.451Z,10.45
2022-12-18T12:51:29.969Z,9.98
2022-12-18T12:53:59.622Z,16.20
2022-12-18T12:56:57.249Z,10.75
2022-12-18T12:59:39.779Z,9.00
2022-12-18T13:02:52.286Z,9.90
2022-12-18T13:05:22.509Z,11.68
2022-12-18T13:08:02.868Z,19.30
2022-12-18T13:10:42.544Z,11.60
2022-12-18T13:13:11.138Z,14.75
2022-12-18T13:15:40.942Z,11.25
2022-12-18T13:18:10.778Z,8.77
2022-12-18T13:21:01.558Z,12.52
2022-12-18T13:23:32.559Z,7.53
2022-12-18T13:26:24.781Z,10.95
2022-12-18T13:28:55.962Z,11.13
2022-12-18T13:31:40.794Z,11.63
2022-12-18T13:34:28.521Z,15.57
2022-12-18T13:37:17.886Z,14.23
2022-12-18T13:39:44.719Z,9.75
2022-12-18T13:42:31.734Z,16.00
2022-12-18T13:44:59.239Z,7.63
2022-12-18T13:47:34.710Z,14.77
2022-12-18T13:50:10.725Z,14.40
2022-12-18T13:52:40.699Z,20.20
2022-12-18T13:55:17.452Z,10.20
2022-12-18T13:57:44.811Z,6.97
2022-12-18T14:00:31.461Z,8.57
2022-12-18T14:03:00.272Z,11.65
2022-12-18T14:05:38.652Z,9.18
2022-12-18T14:08:11.420Z,8.80
2022-12-18T14:10:48.505Z,12.30
2022-12-18T14:13:28.137Z,11.23
2022-12-18T14:15:55.497Z,13.02
2022-12-18T14:18:25.465Z,11.45
2022-12-18T14:20:56.856Z,7.32
2022-12-18T14:23:41.243Z,10.20
2022-12-18T14:26:30.599Z,11.73
2022-12-18T14:28:58.712Z,9.35
2022-12-18T14:31:31.022Z,14.40
2022-12-18T14:33:57.896Z,6.72
2022-12-18T14:36:27.590Z,6.53
2022-12-18T14:39:00.374Z,9.07
2022-12-18T14:41:29.003Z,11.88
2022-12-18T14:43:56.607Z,7.20
2022-12-18T14:46:38.096Z,8.57
2022-12-18T14:49:20.654Z,5.72
2022-12-18T14:51:53.429Z,11.07
2022-12-18T14:54:21.907Z,9.30
2022-12-18T14:56:52.561Z,9.95
2022-12-18T14:59:25.165Z,21.92
2022-12-18T15:02:00.890Z,8.98
2022-12-18T15:04:44.709Z,13.82
2022-12-18T15:07:22.267Z,14.60
2022-12-18T15:10:04.061Z,5.18
2022-12-18T15:12:42.035Z,10.05
2022-12-18T15:15:40.785Z,10.85
2022-12-18T15:18:13.688Z,11.50
2022-12-18T15:20:40.518Z,10.32
2022-12-18T15:23:22.804Z,15.35
2022-12-18T15:25:57.584Z,10.82
2022-12-18T15:28:29.444Z,10.88
2022-12-18T15:31:05.722Z,12.15
2022-12-18T15:33:38.545Z,10.50
2022-12-18T15:36:10.601Z,12.10
2022-12-18T15:38:37.641Z,16.38
2022-12-18T15:41:06.162Z,7.88
2022-12-18T15:43:39.606Z,7.43
2022-12-18T15:46:08.112Z,15.13
2022-12-18T15:48:42.627Z,10.18
2022-12-18T15:51:19.790Z,10.65
2022-12-18T15:53:48.728Z,13.30
2022-12-18T15:56:35.507Z,10.25
2022-12-18T15:59:03.151Z,17.42
2022-12-18T16:01:32.916Z,10.93
2022-12-18T16:04:01.397Z,12.65
2022-12-18T16:06:36.513Z,11.77
2022-12-18T16:09:15.214Z,7.47
2022-12-18T16:11:45.302Z,6.35
2022-12-18T16:14:22.910Z,4.40
2022-12-18T16:16:54.541Z,7.10
2022-12-18T16:19:22.554Z,12.15
2022-12-18T16:21:51.714Z,10.52
2022-12-18T16:24:20.905Z,9.55
2022-12-18T16:26:47.881Z,9.88
2022-12-18T16:29:15.532Z,12.50
2022-12-18T16:31:42.354Z,9.98
2022-12-18T16:34:25.434Z,10.18
2022-12-18T16:37:05.182Z,8.88
2022-12-18T16:39:34.491Z,14.50
2022-12-18T16:42:05.593Z,12.18
2022-12-18T16:44:34.661Z,13.82
2022-12-18T16:47:04.547Z,18.67
2022-12-18T16:49:31.886Z,7.22
2022-12-18T16:51:58.855Z,12.50
2022-12-18T16:54:25.709Z,6.15
2022-12-18T16:56:52.969Z,15.73
2022-12-18T16:59:19.920Z,10.13
2022-12-18T17:01:47.204Z,6.20
2022-12-18T17:04:14.706Z,7.97
2022-12-18T17:06:44.025Z,11.50
2022-12-18T17:09:16.710Z,12.63
2022-12-18T17:11:44.438Z,12.48
2022-12-18T17:14:15.285Z,12.90
2022-12-18T17:16:42.359Z,19.58
2022-12-18T17:19:13.702Z,13.18
2022-12-18T17:21:45.624Z,16.40
2022-12-18T17:24:12.571Z,8.75
2022-12-18T17:26:39.636Z,17.48
2022-12-18T17:29:07.109Z,10.07
2022-12-18T17:31:34.867Z,13.93
2022-12-18T17:34:03.349Z,7.40
2022-12-18T17:36:32.283Z,8.00
2022-12-18T17:39:01.173Z,17.65
2022-12-18T17:41:29.405Z,14.77
2022-12-18T17:44:02.465Z,15.48
2022-12-18T17:46:31.980Z,17.13
2022-12-18T17:49:00.649Z,13.75
2022-12-18T17:51:28.675Z,16.75
2022-12-18T17:53:55.806Z,11.77
2022-12-18T17:56:23.971Z,8.02
2022-12-18T17:58:51.016Z,10.80
2022-12-18T18:01:22.695Z,15.45
2022-12-18T18:03:50.976Z,12.85
2022-12-18T18:06:21.165Z,9.35
2022-12-18T18:08:48.459Z,11.00
2022-12-18T18:11:36.924Z,11.63
2022-12-18T18:14:07.173Z,16.83
2022-12-18T18:16:40.406Z,11.73
2022-12-18T18:19:10.217Z,9.40
2022-12-18T18:21:41.965Z,12.52
2022-12-18T18:24:10.555Z,16.02
2022-12-18T18:26:38.125Z,12.23
2022-12-18T18:29:08.053Z,10.73
2022-12-18T18:31:39.681Z,7.35
2022-12-18T18:34:14.278Z,11.68
2022-12-18T18:36:41.174Z,16.15
2022-12-18T18:39:09.061Z,8.77
2022-12-18T18:41:37.741Z,10.27
2022-12-18T18:44:04.929Z,11.90
2022-12-18T18:46:31.867Z,18.15
2022-12-18T18:48:58.733Z,14.60
2022-12-18T18:51:31.548Z,12.38
2022-12-18T18:54:01.719Z,13.27
2022-12-18T18:59:15.817Z,13.25
2022-12-18T19:01:43.163Z,9.52
2022-12-18T19:04:10.370Z,6.18
2022-12-18T19:06:37.426Z,5.40
2022-12-18T19:09:06.928Z,10.30
2022-12-18T19:11:52.245Z,12.20
2022-12-18T19:14:19.290Z,5.68
2022-12-18T19:16:46.390Z,11.80
2022-12-18T19:19:13.373Z,6.57
2022-12-18T19:21:41.036Z,12.85
2022-12-18T19:24:09.145Z,6.50
2022-12-18T19:26:38.002Z,8.35
2022-12-18T19:29:07.763Z,8.55
2022-12-18T19:31:36.892Z,14.07
2022-12-18T19:34:07.201Z,8.25
2022-12-18T19:36:39.187Z,15.00
2022-12-18T19:39:16.986Z,13.23
2022-12-18T19:41:44.328Z,7.30
2022-12-18T19:44:13.067Z,14.43
2022-12-18T19:46:41.987Z,6.93
2022-12-18T19:49:10.284Z,6.78
2022-12-18T19:51:37.064Z,10.90
2022-12-18T19:54:05.451Z,5.55
2022-12-18T19:56:34.702Z,9.82
2022-12-18T19:59:03.913Z,5.93
2022-12-18T20:01:31.802Z,10.70
2022-12-18T20:03:59.772Z,6.80
2022-12-18T20:06:30.882Z,3.42
2022-12-18T20:09:04.776Z,2.80
2022-12-18T20:11:32.958Z,5.53
2022-12-18T20:14:00.051Z,9.50
2022-12-18T20:16:27.833Z,10.57
2022-12-18T20:18:54.937Z,7.47
2022-12-18T20:21:21.734Z,6.47
2022-12-18T20:23:48.860Z,6.15
2022-12-18T20:26:15.653Z,1.75
2022-12-18T20:28:42.852Z,5.63
2022-12-18T20:31:10.609Z,8.88
2022-12-18T20:33:41.643Z,5.22
2022-12-18T20:36:13.514Z,5.72
2022-12-18T20:38:41.995Z,10.73
2022-12-18T20:41:15.415Z,7.70
2022-12-18T20:43:43.590Z,8.27
2022-12-18T20:46:13.764Z,6.78
2022-12-18T20:48:41.625Z,7.25
2022-12-18T20:51:11.354Z,5.20
2022-12-18T20:53:41.748Z,9.50
2022-12-18T20:56:11.791Z,10.05
2022-12-18T20:58:38.854Z,9.35
2022-12-18T21:01:11.866Z,14.80
2022-12-18T21:03:40.529Z,16.15
2022-12-18T21:06:08.315Z,12.50
2022-12-18T21:08:35.284Z,10.15
2022-12-18T21:11:40.901Z,22.17
2022-12-18T21:14:16.190Z,12.93
2022-12-18T21:16:46.781Z,8.48
2022-12-18T21:19:19.432Z,12.77
2022-12-18T21:21:46.720Z,11.10
2022-12-18T21:24:13.705Z,8.10
2022-12-18T21:26:46.097Z,20.08
2022-12-18T21:29:16.257Z,10.93
2022-12-18T21:31:44.277Z,10.55
2022-12-18T21:34:16.959Z,14.90
2022-12-18T21:36:44.564Z,8.68
2022-12-18T21:39:13.206Z,7.40
2022-12-18T21:41:58.851Z,12.07
2022-12-18T21:44:25.756Z,10.80
2022-12-18T21:46:56.965Z,16.75
2022-12-18T21:49:28.509Z,8.93
2022-12-18T21:51:58.277Z,13.48
2022-12-18T21:54:26.893Z,11.48
2022-12-18T21:56:56.481Z,8.73
2022-12-18T21:59:38.441Z,5.50
2022-12-18T22:02:10.218Z,10.60
2022-12-18T22:04:37.596Z,10.15
2022-12-18T22:07:05.906Z,9.18
2022-12-18T22:09:33.476Z,30.90
2022-12-18T22:12:00.725Z,10.20
2022-12-18T22:14:28.046Z,9.25
2022-12-18T22:16:58.080Z,11.55
2022-12-18T22:19:25.884Z,14.77
2022-12-18T22:21:53.461Z,12.50
2022-12-18T22:24:22.902Z,13.10
2022-12-18T22:26:51.654Z,6.03
2022-12-18T22:29:42.541Z,9.45
2022-12-18T22:32:16.489Z,13.82
2022-12-18T22:34:44.004Z,7.07
2022-12-18T22:37:12.479Z,22.58
2022-12-18T22:39:39.472Z,4.45
2022-12-18T22:42:06.933Z,11.68
2022-12-18T22:44:33.847Z,8.88
2022-12-18T22:47:05.916Z,10.65
2022-12-18T22:49:35.209Z,12.77
2022-12-18T22:52:03.526Z,10.00
2022-12-18T22:54:30.270Z,26.63
2022-12-18T22:56:57.493Z,10.38
2022-12-18T22:59:24.478Z,10.88
2022-12-18T23:01:58.821Z,10.27
2022-12-18T23:06:58.164Z,5.05
2022-12-18T23:09:24.869Z,10.07
2022-12-18T23:11:51.854Z,10.18
2022-12-18T23:14:18.821Z,6.45
2022-12-18T23:16:45.908Z,8.45
2022-12-18T23:19:14.474Z,9.65
2022-12-18T23:21:41.722Z,10.45
2022-12-18T23:24:08.881Z,8.60
2022-12-18T23:26:35.909Z,16.52
2022-12-18T23:29:03.998Z,12.77
2022-12-18T23:31:34.585Z,10.40
2022-12-18T23:34:03.049Z,8.77
2022-12-18T23:36:30.753Z,10.18
2022-12-18T23:39:01.985Z,13.63
2022-12-18T23:41:31.363Z,6.57
2022-12-18T23:43:59.398Z,9.38
2022-12-18T23:46:31.452Z,6.65
2022-12-18T23:49:00.310Z,9.48
2022-12-18T23:51:28.556Z,9.82
2022-12-18T23:53:58.853Z,8.95
2022-12-18T23:56:27.662Z,13.70
2022-12-18T23:58:54.742Z,8.20
